createdAt,value
2023-12-09T00:01:59.253Z,6.85
2023-12-09T00:04:25.694Z,7.68
2023-12-09T00:06:52.176Z,9.50
2023-12-09T00:09:21.681Z,9.30
2023-12-09T00:11:47.979Z,10.65
2023-12-09T00:14:14.334Z,9.50
2023-12-09T00:16:40.962Z,11.52
2023-12-09T00:19:08.348Z,9.05
2023-12-09T00:21:34.756Z,7.97
2023-12-09T00:24:01.225Z,8.60
2023-12-09T00:26:27.581Z,11.13
2023-12-09T00:28:53.898Z,10.55
2023-12-09T00:31:20.191Z,7.32
2023-12-09T00:33:46.687Z,9.18
2023-12-09T00:36:13.226Z,7.78
2023-12-09T00:38:40.966Z,10.65
2023-12-09T00:41:07.303Z,8.40
2023-12-09T00:43:33.594Z,7.90
2023-12-09T00:45:59.896Z,6.78
2023-12-09T00:48:26.542Z,9.57
2023-12-09T00:50:52.970Z,9.02
2023-12-09T00:53:19.319Z,7.40
2023-12-09T00:55:45.608Z,9.18
2023-12-09T00:58:11.943Z,7.03
2023-12-09T01:00:38.335Z,10.35
2023-12-09T01:03:04.997Z,8.30
2023-12-09T01:05:31.670Z,9.63
2023-12-09T01:07:58.031Z,9.02
2023-12-09T01:10:24.704Z,10.70
2023-12-09T01:12:51.123Z,11.32
2023-12-09T01:15:17.572Z,8.93
2023-12-09T01:17:44.137Z,7.18
2023-12-09T01:20:10.717Z,13.68
2023-12-09T01:22:37.044Z,14.50
2023-12-09T01:25:03.643Z,12.35
2023-12-09T01:27:30.297Z,11.82
2023-12-09T01:29:56.666Z,12.35
2023-12-09T01:32:22.966Z,8.25
2023-12-09T01:34:49.347Z,9.10
2023-12-09T01:37:15.677Z,12.50
2023-12-09T01:39:42.243Z,8.10
2023-12-09T01:42:09.380Z,10.68
2023-12-09T01:44:36.586Z,10.07
2023-12-09T01:47:03.138Z,9.00
2023-12-09T01:49:29.646Z,9.48
2023-12-09T01:51:56.889Z,8.57
2023-12-09T01:54:23.246Z,8.82
2023-12-09T01:56:49.655Z,7.38
2023-12-09T01:59:16.324Z,10.80
2023-12-09T02:01:44.330Z,12.73
2023-12-09T02:04:11.149Z,8.43
2023-12-09T02:06:38.802Z,12.65
2023-12-09T02:09:05.115Z,8.80
2023-12-09T02:11:40.328Z,12.38
2023-12-09T02:14:08.558Z,10.13
2023-12-09T02:16:34.910Z,7.93
2023-12-09T02:19:01.828Z,9.13
2023-12-09T02:21:28.313Z,8.80
2023-12-09T02:23:54.824Z,10.63
2023-12-09T02:26:25.743Z,11.07
2023-12-09T02:28:53.944Z,9.43
2023-12-09T02:31:23.766Z,10.23
2023-12-09T02:33:50.251Z,9.23
2023-12-09T02:36:18.368Z,6.72
2023-12-09T02:38:45.127Z,10.20
2023-12-09T02:41:12.199Z,11.90
2023-12-09T02:43:38.571Z,8.68
2023-12-09T02:46:04.996Z,9.98
2023-12-09T02:48:31.429Z,9.65
2023-12-09T02:50:57.881Z,7.65
2023-12-09T02:53:24.228Z,9.80
2023-12-09T02:55:50.543Z,8.90
2023-12-09T02:58:16.875Z,7.63
2023-12-09T03:00:43.898Z,9.32
2023-12-09T03:03:10.292Z,6.75
2023-12-09T03:05:36.602Z,9.63
2023-12-09T03:08:02.885Z,12.70
2023-12-09T03:10:29.244Z,12.93
2023-12-09T03:12:55.986Z,10.18
2023-12-09T03:15:22.308Z,8.27
2023-12-09T03:17:48.800Z,10.77
2023-12-09T03:20:15.434Z,8.18
2023-12-09T03:22:41.729Z,8.93
2023-12-09T03:25:08.257Z,7.25
2023-12-09T03:27:34.623Z,10.00
2023-12-09T03:30:01.009Z,9.55
2023-12-09T03:32:27.566Z,10.02
2023-12-09T03:34:54.088Z,12.00
2023-12-09T03:37:20.433Z,8.05
2023-12-09T03:39:46.735Z,13.60
2023-12-09T03:42:13.055Z,8.93
2023-12-09T03:44:39.393Z,9.80
2023-12-09T03:47:11.978Z,8.50
2023-12-09T03:49:45.216Z,8.35
2023-12-09T03:52:11.613Z,9.20
2023-12-09T03:54:38.676Z,10.40
2023-12-09T03:57:05.164Z,8.68
2023-12-09T03:59:31.480Z,9.23
2023-12-09T04:02:00.734Z,9.82
2023-12-09T04:04:27.663Z,8.80
2023-12-09T04:06:53.960Z,7.18
2023-12-09T04:09:20.371Z,8.18
2023-12-09T04:11:46.653Z,9.75
2023-12-09T04:14:13.004Z,9.10
2023-12-09T04:16:39.313Z,9.32
2023-12-09T04:19:08.496Z,7.70
2023-12-09T04:21:36.207Z,8.80
2023-12-09T04:24:02.630Z,10.65
2023-12-09T04:26:28.872Z,9.75
2023-12-09T04:28:55.174Z,11.90
2023-12-09T04:31:21.444Z,10.45
2023-12-09T04:33:47.847Z,13.45
2023-12-09T04:36:15.050Z,9.23
2023-12-09T04:38:42.198Z,9.40
2023-12-09T04:41:08.510Z,8.63
2023-12-09T04:43:34.827Z,10.05
2023-12-09T04:46:01.209Z,10.13
2023-12-09T04:48:27.651Z,10.00
2023-12-09T04:50:54.107Z,6.63
2023-12-09T04:53:21.742Z,9.80
2023-12-09T04:55:48.075Z,10.10
2023-12-09T04:58:14.329Z,9.20
2023-12-09T05:00:40.789Z,7.68
2023-12-09T05:03:07.216Z,8.93
2023-12-09T05:05:33.529Z,11.50
2023-12-09T05:07:59.816Z,8.88
2023-12-09T05:10:26.071Z,18.10
2023-12-09T05:12:52.356Z,9.73
2023-12-09T05:15:18.694Z,9.77
2023-12-09T05:17:45.147Z,8.95
2023-12-09T05:20:11.624Z,9.80
2023-12-09T05:22:38.228Z,11.40
2023-12-09T05:25:04.965Z,13.52
2023-12-09T05:27:31.395Z,10.48
2023-12-09T05:29:57.797Z,10.68
2023-12-09T05:32:24.189Z,13.70
2023-12-09T05:34:50.645Z,9.88
2023-12-09T05:37:16.902Z,10.15
2023-12-09T05:39:43.242Z,10.15
2023-12-09T05:42:09.596Z,10.43
2023-12-09T05:44:35.942Z,12.50
2023-12-09T05:47:02.242Z,10.60
2023-12-09T05:49:28.628Z,10.18
2023-12-09T05:51:55.023Z,12.90
2023-12-09T05:54:21.337Z,11.82
2023-12-09T05:56:48.993Z,10.52
2023-12-09T05:59:15.445Z,8.57
2023-12-09T06:01:41.739Z,8.57
2023-12-09T06:04:08.058Z,9.18
2023-12-09T06:06:34.400Z,12.18
2023-12-09T06:09:00.870Z,8.55
2023-12-09T06:11:27.159Z,10.75
2023-12-09T06:13:53.562Z,9.45
2023-12-09T06:16:20.362Z,9.25
2023-12-09T06:18:46.983Z,10.30
2023-12-09T06:21:25.967Z,8.82
2023-12-09T06:23:52.978Z,9.73
2023-12-09T06:26:19.900Z,8.60
2023-12-09T06:28:46.440Z,8.00
2023-12-09T06:31:12.780Z,9.23
2023-12-09T06:33:39.337Z,7.68
2023-12-09T06:36:06.636Z,8.95
2023-12-09T06:38:35.486Z,7.63
2023-12-09T06:41:01.838Z,12.05
2023-12-09T06:43:28.110Z,8.68
2023-12-09T06:45:54.363Z,9.13
2023-12-09T06:48:21.461Z,12.40
2023-12-09T06:50:48.080Z,8.88
2023-12-09T06:53:14.754Z,10.95
2023-12-09T06:55:41.316Z,10.02
2023-12-09T06:58:07.564Z,8.48
2023-12-09T07:00:33.992Z,10.23
2023-12-09T07:03:01.120Z,10.68
2023-12-09T07:05:28.001Z,13.15
2023-12-09T07:07:54.433Z,10.88
2023-12-09T07:10:20.867Z,13.73
2023-12-09T07:12:47.312Z,11.10
2023-12-09T07:15:13.865Z,9.15
2023-12-09T07:17:40.402Z,9.43
2023-12-09T07:20:07.458Z,11.68
2023-12-09T07:22:33.937Z,8.27
2023-12-09T07:25:00.258Z,6.45
2023-12-09T07:27:26.672Z,7.50
2023-12-09T07:29:52.991Z,9.48
2023-12-09T07:32:19.332Z,9.90
2023-12-09T07:34:45.763Z,7.03
2023-12-09T07:37:15.728Z,10.30
2023-12-09T07:39:42.108Z,11.05
2023-12-09T07:42:09.029Z,11.40
2023-12-09T07:44:35.859Z,8.73
2023-12-09T07:47:02.144Z,9.80
2023-12-09T07:49:29.108Z,10.15
2023-12-09T07:51:55.596Z,7.45
2023-12-09T07:54:21.882Z,9.85
2023-12-09T07:56:48.185Z,7.60
2023-12-09T07:59:14.501Z,11.25
2023-12-09T08:01:41.808Z,12.57
2023-12-09T08:04:08.224Z,10.15
2023-12-09T08:06:34.713Z,10.90
2023-12-09T08:09:01.122Z,11.45
2023-12-09T08:11:27.496Z,11.52
2023-12-09T08:13:54.098Z,19.95
2023-12-09T08:16:20.449Z,13.55
2023-12-09T08:18:47.564Z,11.38
2023-12-09T08:21:14.124Z,11.70
2023-12-09T08:23:40.493Z,10.50
2023-12-09T08:26:07.347Z,10.25
2023-12-09T08:28:35.364Z,13.65
2023-12-09T08:31:02.143Z,11.80
2023-12-09T08:33:28.735Z,13.07
2023-12-09T08:35:55.188Z,10.07
2023-12-09T08:38:21.600Z,14.57
2023-12-09T08:40:48.110Z,11.35
2023-12-09T08:43:14.380Z,15.50
2023-12-09T08:45:41.019Z,11.60
2023-12-09T08:48:07.947Z,14.27
2023-12-09T08:50:34.536Z,12.50
2023-12-09T08:53:00.953Z,12.30
2023-12-09T08:55:27.234Z,10.23
2023-12-09T08:57:53.968Z,11.13
2023-12-09T09:00:22.435Z,10.15
2023-12-09T09:02:49.610Z,11.90
2023-12-09T09:05:16.315Z,8.73
2023-12-09T09:07:45.826Z,14.10
2023-12-09T09:10:12.125Z,10.75
2023-12-09T09:12:38.485Z,11.70
2023-12-09T09:15:07.629Z,8.82
2023-12-09T09:17:36.290Z,13.10
2023-12-09T09:20:02.962Z,11.32
2023-12-09T09:22:30.010Z,8.45
2023-12-09T09:24:56.714Z,9.27
2023-12-09T09:27:23.112Z,10.63
2023-12-09T09:29:49.387Z,11.70
2023-12-09T09:32:16.729Z,18.00
2023-12-09T09:34:43.925Z,12.52
2023-12-09T09:37:10.697Z,10.05
2023-12-09T09:39:37.029Z,11.85
2023-12-09T09:42:14.075Z,11.15
2023-12-09T09:44:44.531Z,10.18
2023-12-09T09:47:11.376Z,14.98
2023-12-09T09:49:38.328Z,12.07
2023-12-09T09:52:07.131Z,11.63
2023-12-09T09:54:34.843Z,13.55
2023-12-09T09:57:04.807Z,13.45
2023-12-09T09:59:32.108Z,11.50
2023-12-09T10:01:58.409Z,11.15
2023-12-09T10:04:24.727Z,10.75
2023-12-09T10:06:51.646Z,13.95
2023-12-09T10:09:18.083Z,12.18
2023-12-09T10:11:44.385Z,9.73
2023-12-09T10:14:10.795Z,11.27
2023-12-09T10:16:37.400Z,14.07
2023-12-09T10:19:03.943Z,9.50
2023-12-09T10:21:30.908Z,13.18
2023-12-09T10:23:57.328Z,13.57
2023-12-09T10:26:23.632Z,7.88
2023-12-09T10:28:50.568Z,8.32
2023-12-09T10:31:17.509Z,10.57
2023-12-09T10:33:45.705Z,11.73
2023-12-09T10:36:12.177Z,12.45
2023-12-09T10:38:41.980Z,8.93
2023-12-09T10:41:08.415Z,11.00
2023-12-09T10:43:34.726Z,9.00
2023-12-09T10:46:00.989Z,8.50
2023-12-09T10:48:29.672Z,9.90
2023-12-09T10:50:56.375Z,14.45
2023-12-09T10:53:22.713Z,8.85
2023-12-09T10:55:49.359Z,10.15
2023-12-09T10:58:15.999Z,9.90
2023-12-09T11:00:43.106Z,11.48
2023-12-09T11:03:10.484Z,13.32
2023-12-09T11:05:43.112Z,10.68
2023-12-09T11:08:11.227Z,11.68
2023-12-09T11:10:37.669Z,11.57
2023-12-09T11:13:04.809Z,10.60
2023-12-09T11:15:33.397Z,7.22
2023-12-09T11:18:08.409Z,10.18
2023-12-09T11:20:36.912Z,13.02
2023-12-09T11:23:03.614Z,10.10
2023-12-09T11:25:31.108Z,8.40
2023-12-09T11:27:59.525Z,11.70
2023-12-09T11:30:46.133Z,9.77
2023-12-09T11:33:14.147Z,8.98
2023-12-09T11:35:41.711Z,15.00
2023-12-09T11:38:13.851Z,9.70
2023-12-09T11:40:41.828Z,13.40
2023-12-09T11:43:09.311Z,13.32
2023-12-09T11:45:36.823Z,11.50
2023-12-09T11:48:04.838Z,10.23
2023-12-09T11:50:31.206Z,10.88
2023-12-09T11:52:57.590Z,8.15
2023-12-09T11:55:24.051Z,9.90
2023-12-09T11:57:50.519Z,9.05
2023-12-09T12:00:17.031Z,10.88
2023-12-09T12:02:46.285Z,8.93
2023-12-09T12:05:13.376Z,8.95
2023-12-09T12:07:40.053Z,7.88
2023-12-09T12:10:06.845Z,6.93
2023-12-09T12:12:33.463Z,9.32
2023-12-09T12:15:00.002Z,5.13
2023-12-09T12:17:26.382Z,7.80
2023-12-09T12:19:52.923Z,9.10
2023-12-09T12:22:19.810Z,5.75
2023-12-09T12:24:46.319Z,7.85
2023-12-09T12:27:12.895Z,5.35
2023-12-09T12:29:39.719Z,9.80
2023-12-09T12:32:09.179Z,7.00
2023-12-09T12:34:35.732Z,9.35
2023-12-09T12:37:02.265Z,7.00
2023-12-09T12:39:28.621Z,7.25
2023-12-09T12:41:55.764Z,4.97
2023-12-09T12:44:22.084Z,4.80
2023-12-09T12:46:48.398Z,5.30
2023-12-09T12:49:14.937Z,3.28
2023-12-09T12:51:41.311Z,6.63
2023-12-09T12:54:07.698Z,5.82
2023-12-09T12:56:33.988Z,5.35
2023-12-09T12:59:00.282Z,6.68
2023-12-09T13:01:27.048Z,6.32
2023-12-09T13:03:53.600Z,4.32
2023-12-09T13:06:20.129Z,3.58
2023-12-09T13:08:46.467Z,2.92
2023-12-09T13:11:12.858Z,3.53
2023-12-09T13:13:39.355Z,6.47
2023-12-09T13:16:05.907Z,5.90
2023-12-09T13:18:32.289Z,3.65
2023-12-09T13:20:59.031Z,4.22
2023-12-09T13:23:25.529Z,6.35
2023-12-09T13:25:52.082Z,4.53
2023-12-09T13:28:18.411Z,4.63
2023-12-09T13:30:44.736Z,9.45
2023-12-09T13:33:11.291Z,4.57
2023-12-09T13:35:37.816Z,4.20
2023-12-09T13:38:04.323Z,5.97
2023-12-09T13:40:31.230Z,6.63
2023-12-09T13:42:57.579Z,10.05
2023-12-09T13:45:25.689Z,8.07
2023-12-09T13:47:53.812Z,7.22
2023-12-09T13:50:20.273Z,4.55
2023-12-09T13:52:46.790Z,6.45
2023-12-09T13:55:13.069Z,7.20
2023-12-09T13:57:39.467Z,5.47
2023-12-09T14:00:09.072Z,8.00
2023-12-09T14:02:39.282Z,7.90
2023-12-09T14:05:10.355Z,8.25
2023-12-09T14:07:37.206Z,7.55
2023-12-09T14:10:05.805Z,7.43
2023-12-09T14:12:32.905Z,7.60
2023-12-09T14:15:00.517Z,7.60
2023-12-09T14:17:27.672Z,6.35
2023-12-09T14:19:54.109Z,4.97
2023-12-09T14:22:20.853Z,2.92
2023-12-09T14:24:47.171Z,5.72
2023-12-09T14:27:13.775Z,7.78
2023-12-09T14:29:40.204Z,3.67
2023-12-09T14:32:07.577Z,6.40
2023-12-09T14:34:34.045Z,6.20
2023-12-09T14:37:01.976Z,3.13
2023-12-09T14:39:28.293Z,2.13
2023-12-09T14:41:54.700Z,2.05
2023-12-09T14:44:21.069Z,2.53
2023-12-09T14:46:47.445Z,2.15
2023-12-09T14:49:14.013Z,3.15
2023-12-09T14:51:44.066Z,4.10
2023-12-09T14:54:14.758Z,5.20
2023-12-09T14:56:42.813Z,4.22
2023-12-09T14:59:09.141Z,6.18
2023-12-09T15:01:35.512Z,4.82
2023-12-09T15:04:04.229Z,6.28
2023-12-09T15:06:31.014Z,5.03
2023-12-09T15:08:57.392Z,5.18
2023-12-09T15:11:25.521Z,4.65
2023-12-09T15:13:51.813Z,5.65
2023-12-09T15:16:19.157Z,4.60
2023-12-09T15:18:45.855Z,3.70
2023-12-09T15:21:12.354Z,4.20
2023-12-09T15:23:38.723Z,4.75
2023-12-09T15:26:05.324Z,3.83
2023-12-09T15:28:31.739Z,9.52
2023-12-09T15:30:58.031Z,4.05
2023-12-09T15:33:24.528Z,5.07
2023-12-09T15:35:51.201Z,3.92
2023-12-09T15:38:17.519Z,4.43
2023-12-09T15:40:44.752Z,6.90
2023-12-09T15:43:11.872Z,3.10
2023-12-09T15:45:38.244Z,4.15
2023-12-09T15:48:05.057Z,3.90
2023-12-09T15:50:32.489Z,5.68
2023-12-09T15:53:00.205Z,4.75
2023-12-09T15:55:26.585Z,4.90
2023-12-09T15:57:58.755Z,2.97
2023-12-09T16:00:26.078Z,5.53
2023-12-09T16:02:53.510Z,4.07
2023-12-09T16:05:20.052Z,2.75
2023-12-09T16:07:46.494Z,3.55
2023-12-09T16:10:13.211Z,5.35
2023-12-09T16:12:40.761Z,3.20
2023-12-09T16:15:08.143Z,5.30
2023-12-09T16:17:37.772Z,4.38
2023-12-09T16:20:04.633Z,3.80
2023-12-09T16:22:31.411Z,4.03
2023-12-09T16:24:58.156Z,6.60
2023-12-09T16:27:25.040Z,3.83
2023-12-09T16:29:51.783Z,3.95
2023-12-09T16:32:18.303Z,5.68
2023-12-09T16:34:44.715Z,5.03
2023-12-09T16:37:11.247Z,3.92
2023-12-09T16:39:37.565Z,6.18
2023-12-09T16:42:04.200Z,3.55
2023-12-09T16:44:30.691Z,3.90
2023-12-09T16:46:57.058Z,4.10
2023-12-09T16:49:23.671Z,4.75
2023-12-09T16:51:50.169Z,5.65
2023-12-09T16:54:16.587Z,4.63
2023-12-09T16:56:43.245Z,4.70
2023-12-09T16:59:11.951Z,4.40
2023-12-09T17:01:41.418Z,5.53
2023-12-09T17:04:08.032Z,41.35
2023-12-09T17:06:34.716Z,5.88
2023-12-09T17:09:01.229Z,4.70
2023-12-09T17:11:27.932Z,4.03
2023-12-09T17:13:54.308Z,3.80
2023-12-09T17:16:20.763Z,3.95
2023-12-09T17:18:47.329Z,4.18
2023-12-09T17:21:13.843Z,4.15
2023-12-09T17:23:41.869Z,4.68
2023-12-09T17:26:08.560Z,5.40
2023-12-09T17:28:35.320Z,5.95
2023-12-09T17:31:02.261Z,5.05
2023-12-09T17:33:28.811Z,4.50
2023-12-09T17:35:55.208Z,5.38
2023-12-09T17:38:21.683Z,5.43
2023-12-09T17:40:48.001Z,5.72
2023-12-09T17:43:14.305Z,5.07
2023-12-09T17:45:40.709Z,5.20
2023-12-09T17:48:07.156Z,5.00
2023-12-09T17:50:33.578Z,4.47
2023-12-09T17:52:59.951Z,5.35
2023-12-09T17:55:26.501Z,3.97
2023-12-09T17:57:52.952Z,3.42
2023-12-09T18:00:19.502Z,5.18
2023-12-09T18:02:45.941Z,4.47
2023-12-09T18:05:12.865Z,4.18
2023-12-09T18:07:39.877Z,4.65
2023-12-09T18:10:06.676Z,3.30
2023-12-09T18:12:33.133Z,4.60
2023-12-09T18:14:59.492Z,4.53
2023-12-09T18:17:26.099Z,5.80
2023-12-09T18:19:52.602Z,4.88
2023-12-09T18:22:21.978Z,5.32
2023-12-09T18:24:48.911Z,5.72
2023-12-09T18:27:15.520Z,4.57
2023-12-09T18:29:42.800Z,4.07
2023-12-09T18:32:14.757Z,3.17
2023-12-09T18:34:41.363Z,2.58
2023-12-09T18:37:07.820Z,3.78
2023-12-09T18:39:34.448Z,2.80
2023-12-09T18:42:01.789Z,4.32
2023-12-09T18:44:28.193Z,3.28
2023-12-09T18:46:55.039Z,2.58
2023-12-09T18:49:21.591Z,3.15
2023-12-09T18:51:48.058Z,3.00
2023-12-09T18:54:14.463Z,5.88
2023-12-09T18:56:40.893Z,4.65
2023-12-09T18:59:08.656Z,3.28
2023-12-09T19:01:35.031Z,5.43
2023-12-09T19:04:03.284Z,6.30
2023-12-09T19:06:32.704Z,5.72
2023-12-09T19:09:03.825Z,4.95
2023-12-09T19:11:31.313Z,3.97
2023-12-09T19:13:57.607Z,4.13
2023-12-09T19:16:23.947Z,3.95
2023-12-09T19:18:50.424Z,2.95
2023-12-09T19:21:17.992Z,3.70
2023-12-09T19:23:44.558Z,2.85
2023-12-09T19:26:10.901Z,2.80
2023-12-09T19:28:37.494Z,2.15
2023-12-09T19:31:03.876Z,3.33
2023-12-09T19:33:30.325Z,2.25
2023-12-09T19:35:56.870Z,2.63
2023-12-09T19:38:23.270Z,2.63
2023-12-09T19:40:49.641Z,3.00
2023-12-09T19:43:16.063Z,2.15
2023-12-09T19:45:42.424Z,2.95
2023-12-09T19:48:09.089Z,2.65
2023-12-09T19:50:35.552Z,2.40
2023-12-09T19:53:04.884Z,2.20
2023-12-09T19:55:31.331Z,2.55
2023-12-09T19:57:58.329Z,2.80
2023-12-09T20:00:24.685Z,3.65
2023-12-09T20:02:51.065Z,3.75
2023-12-09T20:05:19.100Z,2.95
2023-12-09T20:07:45.690Z,2.55
2023-12-09T20:10:12.181Z,3.25
2023-12-09T20:12:38.518Z,4.75
2023-12-09T20:15:07.343Z,7.13
2023-12-09T20:17:34.113Z,5.80
2023-12-09T20:20:00.612Z,4.78
2023-12-09T20:22:27.162Z,7.20
2023-12-09T20:24:53.786Z,6.03
2023-12-09T20:27:20.223Z,6.93
2023-12-09T20:29:46.590Z,10.18
2023-12-09T20:32:12.906Z,6.88
2023-12-09T20:34:39.357Z,5.75
2023-12-09T20:37:05.766Z,9.80
2023-12-09T20:39:32.390Z,11.45
2023-12-09T20:41:58.944Z,11.13
2023-12-09T20:44:25.276Z,8.25
2023-12-09T20:46:51.641Z,11.88
2023-12-09T20:49:18.595Z,13.13
2023-12-09T20:51:45.569Z,12.02
2023-12-09T20:54:12.005Z,18.55
2023-12-09T20:56:39.245Z,11.27
2023-12-09T20:59:08.182Z,14.82
2023-12-09T21:01:34.593Z,10.65
2023-12-09T21:04:01.087Z,11.82
2023-12-09T21:06:27.698Z,16.15
2023-12-09T21:08:54.059Z,17.42
2023-12-09T21:11:22.614Z,17.98
2023-12-09T21:13:50.195Z,19.23
2023-12-09T21:16:17.683Z,14.23
2023-12-09T21:18:44.327Z,18.85
2023-12-09T21:21:10.743Z,17.35
2023-12-09T21:23:37.174Z,19.00
2023-12-09T21:26:03.548Z,16.05
2023-12-09T21:28:29.919Z,16.17
2023-12-09T21:30:56.361Z,17.35
2023-12-09T21:33:22.927Z,17.33
2023-12-09T21:35:49.519Z,23.60
2023-12-09T21:38:16.211Z,19.90
2023-12-09T21:40:42.580Z,21.63
2023-12-09T21:43:08.992Z,23.45
2023-12-09T21:45:35.387Z,20.95
2023-12-09T21:48:02.922Z,23.25
2023-12-09T21:50:29.370Z,25.58
2023-12-09T21:52:55.813Z,20.42
2023-12-09T21:55:22.647Z,24.20
2023-12-09T21:57:49.199Z,24.88
2023-12-09T22:00:15.958Z,19.08
2023-12-09T22:02:42.350Z,24.85
2023-12-09T22:05:09.344Z,18.58
2023-12-09T22:07:35.885Z,24.35
2023-12-09T22:10:02.280Z,23.15
2023-12-09T22:12:28.973Z,23.55
2023-12-09T22:14:55.522Z,23.20
2023-12-09T22:17:21.888Z,21.98
2023-12-09T22:19:48.208Z,28.90
2023-12-09T22:22:14.485Z,21.75
2023-12-09T22:24:40.885Z,23.20
2023-12-09T22:27:07.858Z,26.75
2023-12-09T22:29:35.917Z,30.10
2023-12-09T22:32:02.276Z,27.17
2023-12-09T22:34:29.114Z,22.40
2023-12-09T22:36:55.573Z,29.17
2023-12-09T22:39:21.982Z,29.75
2023-12-09T22:41:48.377Z,26.10
2023-12-09T22:44:14.778Z,29.13
2023-12-09T22:46:41.422Z,25.25
2023-12-09T22:49:08.051Z,29.23
2023-12-09T22:51:35.782Z,28.65
2023-12-09T22:54:02.331Z,25.85
2023-12-09T22:56:29.546Z,27.73
2023-12-09T22:58:56.819Z,24.15
2023-12-09T23:01:24.119Z,32.80
2023-12-09T23:03:50.732Z,25.80
2023-12-09T23:06:17.690Z,28.58
2023-12-09T23:08:44.452Z,30.65
2023-12-09T23:11:10.820Z,28.17
2023-12-09T23:13:37.124Z,31.70
2023-12-09T23:16:04.375Z,25.80
2023-12-09T23:18:31.017Z,27.95
2023-12-09T23:20:57.466Z,31.15
2023-12-09T23:23:24.067Z,34.20
2023-12-09T23:25:50.649Z,28.13
2023-12-09T23:28:17.070Z,31.27
2023-12-09T23:30:43.494Z,29.52
2023-12-09T23:33:10.015Z,32.95
2023-12-09T23:35:36.437Z,32.92
2023-12-09T23:38:03.353Z,33.10
2023-12-09T23:40:29.661Z,33.90
2023-12-09T23:42:56.171Z,35.00
2023-12-09T23:45:22.478Z,29.73
2023-12-09T23:47:49.030Z,34.10
2023-12-09T23:50:15.362Z,28.73
2023-12-09T23:52:41.656Z,27.92
2023-12-09T23:55:08.181Z,32.60
2023-12-09T23:57:34.510Z,29.55
